createdAt,value
2022-09-26T00:00:50.204Z,88.53
2022-09-26T00:01:50.241Z,88.43
2022-09-26T00:02:50.276Z,88.15
2022-09-26T00:03:50.172Z,87.95
2022-09-26T00:04:51.178Z,87.86
2022-09-26T00:05:50.189Z,88.15
2022-09-26T00:06:50.162Z,88.05
2022-09-26T00:07:50.184Z,87.86
2022-09-26T00:08:50.170Z,87.86
2022-09-26T00:09:50.164Z,87.86
2022-09-26T00:10:51.172Z,87.57
2022-09-26T00:11:50.159Z,87.48
2022-09-26T00:12:50.147Z,87.53
2022-09-26T00:13:50.149Z,87.57
2022-09-26T00:14:50.144Z,87.53
2022-09-26T00:15:50.145Z,87.43
2022-09-26T00:16:51.175Z,87.57
2022-09-26T00:17:50.153Z,87.48
2022-09-26T00:18:50.124Z,87.62
2022-09-26T00:19:50.139Z,87.48
2022-09-26T00:20:50.149Z,87.24
2022-09-26T00:21:50.135Z,87.72
2022-09-26T00:22:51.134Z,87.29
2022-09-26T00:23:50.112Z,87.53
2022-09-26T00:24:50.125Z,87.15
2022-09-26T00:25:50.113Z,87.62
2022-09-26T00:26:50.122Z,87.72
2022-09-26T00:27:50.124Z,87.53
2022-09-26T00:28:51.123Z,88.10
2022-09-26T00:29:50.114Z,87.82
2022-09-26T00:30:50.230Z,88.01
2022-09-26T00:31:50.113Z,88.01
2022-09-26T00:32:50.095Z,87.72
2022-09-26T00:33:50.088Z,87.72
2022-09-26T00:34:51.119Z,87.53
2022-09-26T00:35:50.110Z,87.72
2022-09-26T00:36:50.090Z,88.10
2022-09-26T00:37:50.095Z,88.01
2022-09-26T00:38:50.090Z,88.01
2022-09-26T00:39:50.086Z,88.20
2022-09-26T00:40:51.130Z,88.01
2022-09-26T00:41:50.076Z,88.10
2022-09-26T00:42:50.056Z,87.82
2022-09-26T00:43:50.077Z,88.20
2022-09-26T00:44:50.078Z,87.62
2022-09-26T00:45:50.136Z,87.72
2022-09-26T00:46:51.066Z,87.72
2022-09-26T00:47:50.063Z,88.20
2022-09-26T00:48:50.052Z,87.72
2022-09-26T00:49:50.051Z,88.29
2022-09-26T00:50:50.041Z,88.48
2022-09-26T00:51:50.045Z,88.20
2022-09-26T00:52:51.045Z,88.39
2022-09-26T00:53:50.040Z,88.96
2022-09-26T00:54:50.042Z,89.06
2022-09-26T00:55:50.094Z,88.96
2022-09-26T00:56:50.042Z,88.87
2022-09-26T00:57:50.025Z,88.77
2022-09-26T00:58:51.040Z,88.77
2022-09-26T00:59:50.030Z,88.87
2022-09-26T01:00:50.085Z,88.77
2022-09-26T01:01:50.118Z,88.77
2022-09-26T01:02:50.016Z,88.58
2022-09-26T01:03:50.026Z,88.68
2022-09-26T01:04:51.020Z,88.77
2022-09-26T01:05:50.003Z,88.77
2022-09-26T01:06:50.013Z,88.96
2022-09-26T01:07:49.996Z,89.06
2022-09-26T01:08:50.005Z,88.96
2022-09-26T01:09:50.007Z,88.77
2022-09-26T01:10:51.006Z,88.96
2022-09-26T01:11:50.011Z,88.77
2022-09-26T01:12:49.987Z,89.15
2022-09-26T01:13:49.989Z,89.25
2022-09-26T01:14:49.993Z,89.15
2022-09-26T01:15:49.978Z,88.96
2022-09-26T01:16:51.057Z,89.15
2022-09-26T01:17:49.997Z,88.96
2022-09-26T01:18:49.970Z,88.96
2022-09-26T01:19:49.970Z,89.15
2022-09-26T01:20:49.964Z,88.96
2022-09-26T01:21:49.978Z,88.96
2022-09-26T01:22:50.984Z,89.15
2022-09-26T01:23:49.970Z,89.34
2022-09-26T01:24:49.949Z,89.34
2022-09-26T01:25:49.956Z,89.34
2022-09-26T01:26:49.952Z,89.34
2022-09-26T01:27:49.947Z,89.15
2022-09-26T01:28:50.992Z,89.34
2022-09-26T01:29:49.961Z,89.25
2022-09-26T01:30:50.038Z,89.34
2022-09-26T01:31:49.940Z,88.77
2022-09-26T01:32:49.946Z,88.77
2022-09-26T01:33:49.928Z,89.15
2022-09-26T01:34:50.949Z,88.77
2022-09-26T01:35:49.930Z,88.87
2022-09-26T01:36:49.929Z,88.68
2022-09-26T01:37:49.929Z,88.77
2022-09-26T01:38:49.930Z,88.58
2022-09-26T01:39:49.920Z,88.77
2022-09-26T01:40:50.958Z,88.77
2022-09-26T01:41:49.920Z,88.77
2022-09-26T01:42:49.899Z,88.77
2022-09-26T01:43:49.907Z,88.96
2022-09-26T01:44:49.900Z,88.29
2022-09-26T01:45:50.086Z,88.77
2022-09-26T01:46:50.964Z,88.29
2022-09-26T01:47:49.892Z,88.48
2022-09-26T01:48:49.882Z,88.77
2022-09-26T01:49:49.885Z,88.96
2022-09-26T01:50:49.892Z,88.96
2022-09-26T01:51:49.887Z,88.77
2022-09-26T01:52:50.890Z,88.96
2022-09-26T01:53:49.922Z,88.77
2022-09-26T01:54:49.875Z,88.48
2022-09-26T01:55:49.885Z,88.96
2022-09-26T01:56:49.855Z,88.96
2022-09-26T01:57:49.869Z,88.68
2022-09-26T01:58:50.932Z,88.68
2022-09-26T01:59:49.913Z,88.96
2022-09-26T02:00:49.937Z,89.06
2022-09-26T02:01:49.885Z,88.77
2022-09-26T02:02:49.950Z,88.96
2022-09-26T02:03:49.898Z,88.87
2022-09-26T02:04:50.869Z,89.06
2022-09-26T02:05:49.845Z,88.96
2022-09-26T02:06:49.829Z,88.68
2022-09-26T02:07:49.838Z,89.15
2022-09-26T02:08:49.833Z,89.25
2022-09-26T02:09:49.842Z,89.34
2022-09-26T02:10:50.851Z,89.25
2022-09-26T02:11:49.846Z,89.15
2022-09-26T02:12:49.821Z,89.34
2022-09-26T02:13:49.835Z,89.34
2022-09-26T02:14:49.828Z,88.87
2022-09-26T02:15:49.822Z,88.68
2022-09-26T02:16:50.917Z,88.58
2022-09-26T02:17:49.802Z,89.06
2022-09-26T02:18:49.812Z,89.06
2022-09-26T02:19:49.799Z,88.87
2022-09-26T02:20:49.810Z,88.96
2022-09-26T02:21:49.786Z,88.77
2022-09-26T02:22:50.805Z,89.15
2022-09-26T02:23:49.792Z,88.77
2022-09-26T02:24:49.779Z,88.87
2022-09-26T02:25:49.785Z,88.96
2022-09-26T02:26:49.792Z,89.06
2022-09-26T02:27:49.785Z,88.77
2022-09-26T02:28:50.788Z,88.58
2022-09-26T02:29:49.777Z,88.96
2022-09-26T02:30:49.786Z,88.68
2022-09-26T02:31:49.853Z,89.15
2022-09-26T02:32:49.761Z,89.25
2022-09-26T02:33:49.762Z,89.25
2022-09-26T02:34:50.768Z,89.15
2022-09-26T02:35:49.756Z,89.15
2022-09-26T02:36:49.762Z,88.68
2022-09-26T02:37:49.750Z,88.96
2022-09-26T02:38:49.761Z,88.96
2022-09-26T02:39:49.775Z,88.77
2022-09-26T02:40:50.834Z,88.77
2022-09-26T02:41:49.738Z,88.87
2022-09-26T02:42:49.745Z,89.15
2022-09-26T02:43:49.742Z,88.96
2022-09-26T02:44:49.723Z,88.58
2022-09-26T02:45:49.778Z,89.06
2022-09-26T02:46:50.751Z,89.15
2022-09-26T02:47:49.732Z,89.25
2022-09-26T02:48:49.725Z,89.34
2022-09-26T02:49:49.715Z,89.25
2022-09-26T02:50:49.736Z,89.15
2022-09-26T02:51:49.722Z,89.53
2022-09-26T02:52:50.729Z,88.77
2022-09-26T02:53:49.706Z,88.87
2022-09-26T02:54:49.719Z,88.87
2022-09-26T02:55:49.693Z,89.06
2022-09-26T02:56:49.726Z,88.87
2022-09-26T02:57:49.689Z,88.96
2022-09-26T02:58:50.730Z,88.96
2022-09-26T02:59:49.683Z,88.96
2022-09-26T03:00:49.747Z,88.96
2022-09-26T03:01:49.690Z,88.87
2022-09-26T03:02:49.694Z,88.77
2022-09-26T03:03:49.729Z,88.96
2022-09-26T03:04:50.746Z,88.92
2022-09-26T03:05:49.680Z,88.96
2022-09-26T03:06:49.687Z,88.77
2022-09-26T03:07:49.679Z,88.77
2022-09-26T03:08:49.676Z,88.68
2022-09-26T03:09:49.657Z,88.77
2022-09-26T03:10:50.670Z,88.87
2022-09-26T03:11:49.655Z,89.06
2022-09-26T03:12:49.649Z,89.06
2022-09-26T03:13:49.652Z,89.25
2022-09-26T03:14:49.655Z,89.34
2022-09-26T03:15:49.640Z,89.25
2022-09-26T03:16:50.756Z,89.15
2022-09-26T03:17:49.648Z,89.06
2022-09-26T03:18:49.648Z,89.25
2022-09-26T03:19:49.624Z,89.15
2022-09-26T03:20:49.630Z,89.15
2022-09-26T03:21:49.639Z,90.01
2022-09-26T03:22:50.644Z,89.15
2022-09-26T03:23:49.629Z,89.34
2022-09-26T03:24:49.627Z,89.15
2022-09-26T03:25:49.616Z,89.15
2022-09-26T03:26:49.641Z,89.25
2022-09-26T03:27:49.630Z,89.30
2022-09-26T03:28:50.650Z,89.39
2022-09-26T03:29:49.602Z,89.97
2022-09-26T03:30:49.605Z,89.68
2022-09-26T03:31:49.657Z,89.59
2022-09-26T03:32:49.599Z,89.59
2022-09-26T03:33:49.599Z,89.59
2022-09-26T03:34:50.608Z,90.06
2022-09-26T03:35:49.612Z,89.87
2022-09-26T03:36:49.589Z,89.97
2022-09-26T03:37:49.592Z,90.35
2022-09-26T03:38:49.577Z,90.25
2022-09-26T03:39:49.569Z,89.63
2022-09-26T03:40:50.668Z,89.97
2022-09-26T03:41:49.580Z,90.20
2022-09-26T03:42:49.576Z,90.16
2022-09-26T03:43:49.553Z,90.20
2022-09-26T03:44:49.565Z,90.01
2022-09-26T03:45:49.607Z,90.30
2022-09-26T03:46:50.573Z,89.59
2022-09-26T03:47:49.547Z,89.92
2022-09-26T03:48:49.591Z,89.87
2022-09-26T03:49:49.557Z,89.63
2022-09-26T03:50:49.540Z,89.63
2022-09-26T03:51:49.568Z,89.68
2022-09-26T03:52:50.588Z,90.01
2022-09-26T03:53:49.518Z,89.59
2022-09-26T03:54:49.534Z,89.68
2022-09-26T03:55:49.525Z,89.87
2022-09-26T03:56:49.573Z,89.87
2022-09-26T03:57:49.520Z,89.73
2022-09-26T03:58:50.551Z,89.82
2022-09-26T03:59:49.531Z,89.59
2022-09-26T04:00:49.545Z,89.68
2022-09-26T04:01:49.563Z,89.87
2022-09-26T04:02:49.516Z,89.78
2022-09-26T04:03:50.893Z,89.59
2022-09-26T04:04:50.527Z,89.78
2022-09-26T04:05:49.508Z,89.68
2022-09-26T04:06:49.511Z,89.49
2022-09-26T04:07:49.494Z,89.39
2022-09-26T04:08:49.492Z,89.87
2022-09-26T04:09:49.491Z,89.87
2022-09-26T04:10:50.501Z,89.92
2022-09-26T04:11:49.483Z,89.59
2022-09-26T04:12:49.484Z,89.97
2022-09-26T04:13:52.387Z,89.87
2022-09-26T04:14:49.469Z,89.39
2022-09-26T04:15:49.458Z,89.68
2022-09-26T04:16:50.619Z,89.78
2022-09-26T04:17:49.456Z,89.68
2022-09-26T04:18:49.466Z,89.78
2022-09-26T04:19:49.463Z,89.87
2022-09-26T04:20:49.465Z,89.68
2022-09-26T04:21:49.490Z,89.59
2022-09-26T04:22:50.477Z,89.78
2022-09-26T04:23:49.484Z,89.87
2022-09-26T04:24:49.472Z,89.59
2022-09-26T04:25:49.440Z,89.97
2022-09-26T04:26:49.462Z,89.97
2022-09-26T04:27:49.453Z,89.78
2022-09-26T04:28:50.447Z,90.25
2022-09-26T04:29:49.431Z,90.64
2022-09-26T04:30:49.435Z,90.64
2022-09-26T04:31:49.478Z,89.59
2022-09-26T04:32:49.418Z,89.97
2022-09-26T04:33:49.440Z,90.16
2022-09-26T04:34:50.455Z,90.25
2022-09-26T04:35:49.449Z,90.25
2022-09-26T04:36:49.412Z,90.25
2022-09-26T04:37:49.411Z,90.25
2022-09-26T04:38:49.462Z,90.16
2022-09-26T04:39:49.408Z,89.97
2022-09-26T04:40:50.479Z,90.25
2022-09-26T04:41:49.393Z,90.06
2022-09-26T04:42:49.385Z,89.97
2022-09-26T04:43:49.392Z,90.16
2022-09-26T04:44:49.394Z,89.87
2022-09-26T04:45:49.423Z,90.25
2022-09-26T04:46:50.416Z,90.64
2022-09-26T04:47:49.377Z,90.25
2022-09-26T04:48:49.369Z,90.64
2022-09-26T04:49:49.367Z,90.64
2022-09-26T04:50:49.378Z,90.35
2022-09-26T04:51:49.368Z,91.30
2022-09-26T04:52:50.370Z,93.41
2022-09-26T04:53:49.363Z,92.45
2022-09-26T04:54:49.362Z,92.16
2022-09-26T04:55:49.362Z,91.21
2022-09-26T04:56:49.375Z,91.21
2022-09-26T04:57:49.363Z,90.64
2022-09-26T04:58:50.342Z,90.73
2022-09-26T04:59:49.348Z,90.64
2022-09-26T05:00:49.423Z,90.83
2022-09-26T05:01:49.386Z,90.54
2022-09-26T05:02:49.344Z,90.25
2022-09-26T05:03:49.327Z,90.35
2022-09-26T05:04:50.333Z,90.35
2022-09-26T05:05:49.334Z,90.54
2022-09-26T05:06:49.341Z,90.45
2022-09-26T05:07:49.325Z,90.54
2022-09-26T05:08:49.360Z,90.25
2022-09-26T05:09:49.317Z,90.73
2022-09-26T05:10:50.321Z,90.92
2022-09-26T05:11:49.306Z,90.54
2022-09-26T05:12:49.298Z,90.83
2022-09-26T05:13:53.377Z,91.02
2022-09-26T05:14:49.302Z,90.92
2022-09-26T05:15:49.311Z,90.83
2022-09-26T05:16:50.383Z,90.92
2022-09-26T05:17:49.315Z,90.83
2022-09-26T05:18:49.284Z,90.83
2022-09-26T05:19:49.279Z,90.83
2022-09-26T05:20:49.268Z,90.45
2022-09-26T05:21:49.344Z,90.25
2022-09-26T05:22:50.281Z,90.25
2022-09-26T05:23:49.263Z,90.25
2022-09-26T05:24:49.269Z,90.45
2022-09-26T05:25:49.265Z,90.92
2022-09-26T05:26:49.258Z,90.92
2022-09-26T05:27:49.252Z,90.78
2022-09-26T05:28:50.247Z,90.64
2022-09-26T05:29:49.257Z,90.73
2022-09-26T05:30:49.234Z,91.21
2022-09-26T05:31:49.322Z,91.21
2022-09-26T05:32:49.252Z,91.11
2022-09-26T05:33:49.222Z,91.21
2022-09-26T05:34:50.234Z,91.30
2022-09-26T05:35:49.235Z,91.07
2022-09-26T05:36:49.241Z,91.69
2022-09-26T05:37:49.223Z,91.59
2022-09-26T05:38:49.226Z,91.97
2022-09-26T05:39:49.226Z,91.50
2022-09-26T05:40:50.263Z,91.11
2022-09-26T05:41:49.203Z,91.59
2022-09-26T05:42:49.213Z,91.59
2022-09-26T05:43:49.206Z,91.40
2022-09-26T05:44:49.202Z,91.11
2022-09-26T05:45:49.214Z,91.50
2022-09-26T05:46:50.273Z,91.11
2022-09-26T05:47:49.190Z,91.30
2022-09-26T05:48:49.208Z,91.21
2022-09-26T05:49:49.184Z,91.50
2022-09-26T05:50:49.173Z,91.30
2022-09-26T05:51:49.179Z,91.40
2022-09-26T05:52:50.252Z,91.50
2022-09-26T05:53:49.230Z,91.59
2022-09-26T05:54:49.215Z,91.30
2022-09-26T05:55:49.167Z,91.55
2022-09-26T05:56:49.172Z,91.40
2022-09-26T05:57:49.153Z,91.59
2022-09-26T05:58:50.225Z,91.50
2022-09-26T05:59:49.164Z,91.50
2022-09-26T06:00:49.204Z,91.40
2022-09-26T06:01:49.238Z,91.50
2022-09-26T06:02:49.174Z,91.50
2022-09-26T06:03:49.139Z,91.30
2022-09-26T06:04:50.159Z,91.21
2022-09-26T06:05:49.143Z,91.21
2022-09-26T06:06:49.148Z,90.83
2022-09-26T06:07:49.157Z,90.45
2022-09-26T06:08:49.160Z,90.64
2022-09-26T06:09:49.126Z,90.83
2022-09-26T06:10:50.132Z,90.45
2022-09-26T06:11:49.146Z,90.45
2022-09-26T06:12:51.157Z,90.73
2022-09-26T06:13:49.151Z,90.73
2022-09-26T06:14:49.125Z,90.73
2022-09-26T06:15:49.106Z,90.83
2022-09-26T06:16:50.205Z,90.83
2022-09-26T06:17:49.135Z,90.64
2022-09-26T06:18:49.130Z,90.83
2022-09-26T06:19:49.124Z,90.54
2022-09-26T06:20:49.142Z,90.64
2022-09-26T06:21:49.108Z,90.54
2022-09-26T06:22:50.111Z,90.54
2022-09-26T06:23:49.117Z,90.64
2022-09-26T06:24:49.091Z,90.54
2022-09-26T06:25:49.103Z,90.25
2022-09-26T06:26:49.130Z,90.16
2022-09-26T06:27:49.084Z,90.16
2022-09-26T06:28:50.167Z,90.25
2022-09-26T06:29:49.082Z,90.25
2022-09-26T06:30:49.095Z,89.97
2022-09-26T06:31:49.213Z,89.49
2022-09-26T06:32:49.076Z,89.68
2022-09-26T06:33:49.076Z,89.59
2022-09-26T06:34:50.065Z,89.68
2022-09-26T06:35:49.074Z,89.59
2022-09-26T06:36:49.061Z,89.68
2022-09-26T06:37:49.074Z,89.78
2022-09-26T06:38:49.087Z,89.68
2022-09-26T06:39:49.072Z,90.06
2022-09-26T06:40:50.148Z,89.78
2022-09-26T06:41:49.069Z,89.78
2022-09-26T06:42:49.036Z,89.68
2022-09-26T06:43:49.102Z,89.68
2022-09-26T06:44:49.055Z,89.59
2022-09-26T06:45:49.035Z,89.49
2022-09-26T06:46:50.102Z,89.59
2022-09-26T06:47:49.043Z,89.87
2022-09-26T06:48:49.042Z,89.97
2022-09-26T06:49:49.031Z,89.59
2022-09-26T06:50:49.026Z,90.54
2022-09-26T06:51:49.034Z,91.93
2022-09-26T06:52:50.045Z,92.69
2022-09-26T06:53:49.012Z,91.83
2022-09-26T06:54:49.032Z,90.49
2022-09-26T06:55:49.082Z,89.25
2022-09-26T06:56:49.039Z,88.01
2022-09-26T06:57:49.011Z,88.10
2022-09-26T06:58:50.072Z,88.29
2022-09-26T06:59:49.013Z,87.72
2022-09-26T07:00:49.128Z,87.82
2022-09-26T07:01:49.174Z,88.10
2022-09-26T07:02:49.015Z,87.91
2022-09-26T07:03:49.090Z,88.29
2022-09-26T07:04:49.990Z,88.39
2022-09-26T07:05:49.006Z,88.10
2022-09-26T07:06:48.984Z,87.72
2022-09-26T07:07:48.990Z,88.10
2022-09-26T07:09:01.986Z,88.01
2022-09-26T07:09:49.016Z,88.10
2022-09-26T07:10:50.000Z,88.01
2022-09-26T07:12:13.722Z,87.82
2022-09-26T07:12:49.006Z,88.10
2022-09-26T07:13:48.981Z,88.10
2022-09-26T07:14:53.436Z,88.20
2022-09-26T07:15:49.015Z,88.20
2022-09-26T07:16:49.974Z,88.29
2022-09-26T07:17:48.960Z,88.48
2022-09-26T07:18:48.952Z,88.87
2022-09-26T07:19:48.949Z,88.77
2022-09-26T07:20:51.161Z,88.62
2022-09-26T07:21:48.977Z,88.34
2022-09-26T07:22:50.004Z,87.48
2022-09-26T07:23:48.964Z,86.90
2022-09-26T07:24:49.030Z,87.09
2022-09-26T07:25:48.970Z,86.52
2022-09-26T07:26:48.972Z,86.47
2022-09-26T07:27:48.973Z,86.85
2022-09-26T07:28:54.513Z,86.47
2022-09-26T07:29:49.007Z,85.55
2022-09-26T07:30:48.944Z,84.79
2022-09-26T07:31:49.025Z,83.59
2022-09-26T07:32:48.974Z,83.05
2022-09-26T07:33:48.963Z,82.09
2022-09-26T07:34:49.931Z,81.33
2022-09-26T07:35:48.944Z,81.85
2022-09-26T07:36:48.947Z,81.51
2022-09-26T07:37:48.949Z,79.78
2022-09-26T07:38:48.949Z,78.96
2022-09-26T07:39:52.637Z,76.79
2022-09-26T07:40:50.031Z,75.63
2022-09-26T07:41:48.989Z,74.23
2022-09-26T07:43:09.297Z,73.60
2022-09-26T07:45:48.990Z,69.60
2022-09-26T07:46:50.079Z,69.44
2022-09-26T07:47:49.061Z,68.76
2022-09-26T07:48:49.011Z,67.45
2022-09-26T07:49:49.031Z,66.14
2022-09-26T07:50:49.032Z,65.75
2022-09-26T07:51:49.055Z,64.79
2022-09-26T07:52:50.072Z,64.53
2022-09-26T07:53:49.061Z,63.67
2022-09-26T07:54:49.103Z,62.80
2022-09-26T07:55:49.081Z,61.00
2022-09-26T07:56:49.091Z,60.42
2022-09-26T07:57:49.124Z,61.19
2022-09-26T07:58:50.130Z,61.48
2022-09-26T07:59:49.129Z,61.48
2022-09-26T08:00:49.134Z,60.90
2022-09-26T08:01:49.238Z,58.30
2022-09-26T08:02:49.215Z,58.20
2022-09-26T08:03:49.185Z,57.92
2022-09-26T08:04:50.233Z,58.11
2022-09-26T08:05:49.204Z,58.69
2022-09-26T08:06:49.245Z,59.75
2022-09-26T08:07:49.274Z,59.36
2022-09-26T08:08:49.260Z,58.49
2022-09-26T08:09:49.269Z,58.69
2022-09-26T08:10:50.286Z,58.20
2022-09-26T08:11:49.360Z,58.78
2022-09-26T08:12:49.293Z,59.81
2022-09-26T08:13:49.324Z,59.14
2022-09-26T08:14:49.347Z,59.81
2022-09-26T08:15:49.369Z,59.91
2022-09-26T08:16:50.355Z,58.72
2022-09-26T08:17:49.369Z,59.01
2022-09-26T08:18:49.363Z,58.79
2022-09-26T08:19:49.396Z,59.15
2022-09-26T08:20:49.446Z,60.69
2022-09-26T08:21:49.425Z,61.36
2022-09-26T08:22:50.440Z,61.43
2022-09-26T08:23:49.450Z,61.23
2022-09-26T08:24:49.444Z,62.10
2022-09-26T08:25:49.463Z,62.29
2022-09-26T08:26:49.474Z,63.15
2022-09-26T08:27:49.499Z,63.25
2022-09-26T08:28:50.519Z,63.35
2022-09-26T08:29:49.539Z,63.83
2022-09-26T08:30:49.514Z,63.83
2022-09-26T08:31:49.589Z,64.02
2022-09-26T08:32:49.536Z,63.83
2022-09-26T08:33:49.543Z,63.35
2022-09-26T08:34:50.577Z,63.45
2022-09-26T08:35:49.562Z,63.06
2022-09-26T08:36:49.567Z,62.58
2022-09-26T08:37:49.607Z,62.10
2022-09-26T08:38:49.597Z,62.29
2022-09-26T08:39:49.592Z,61.52
2022-09-26T08:40:50.677Z,60.53
2022-09-26T08:41:49.609Z,60.72
2022-09-26T08:42:49.618Z,60.69
2022-09-26T08:43:49.637Z,61.46
2022-09-26T08:44:49.622Z,63.09
2022-09-26T08:45:49.669Z,63.76
2022-09-26T08:46:50.702Z,64.43
2022-09-26T08:47:49.656Z,64.34
2022-09-26T08:48:49.646Z,63.76
2022-09-26T08:49:49.686Z,64.92
2022-09-26T08:50:49.663Z,64.82
2022-09-26T08:51:49.669Z,65.69
2022-09-26T08:52:50.710Z,65.05
2022-09-26T08:53:49.683Z,63.02
2022-09-26T08:54:49.698Z,63.32
2022-09-26T08:55:49.690Z,64.09
2022-09-26T08:56:49.744Z,63.41
2022-09-26T08:57:49.707Z,62.07
2022-09-26T08:58:50.720Z,61.20
2022-09-26T08:59:49.693Z,62.45
2022-09-26T09:00:49.722Z,63.02
2022-09-26T09:01:49.806Z,63.70
2022-09-26T09:02:49.724Z,63.70
2022-09-26T09:03:49.722Z,62.84
2022-09-26T09:04:53.962Z,62.74
2022-09-26T09:05:49.730Z,60.69
2022-09-26T09:06:49.710Z,59.06
2022-09-26T09:07:49.734Z,59.61
2022-09-26T09:08:49.721Z,60.18
2022-09-26T09:09:49.719Z,61.24
2022-09-26T09:10:50.758Z,63.06
2022-09-26T09:11:51.164Z,64.02
2022-09-26T09:12:49.746Z,63.54
2022-09-26T09:13:49.752Z,62.39
2022-09-26T09:15:07.586Z,62.10
2022-09-26T09:15:49.771Z,62.68
2022-09-26T09:16:50.757Z,63.35
2022-09-26T09:17:49.746Z,64.50
2022-09-26T09:18:49.798Z,65.36
2022-09-26T09:19:49.759Z,66.03
2022-09-26T09:20:49.736Z,65.46
2022-09-26T09:21:49.764Z,64.79
2022-09-26T09:22:50.768Z,65.17
2022-09-26T09:23:49.753Z,64.98
2022-09-26T09:24:49.769Z,65.17
2022-09-26T09:25:49.824Z,65.49
2022-09-26T09:27:53.661Z,62.81
2022-09-26T09:28:50.766Z,62.39
2022-09-26T09:29:49.869Z,63.35
2022-09-26T09:30:49.772Z,64.50
2022-09-26T09:31:49.763Z,63.54
2022-09-26T09:32:49.781Z,64.50
2022-09-26T09:33:49.764Z,64.92
2022-09-26T09:34:53.824Z,64.63
2022-09-26T09:35:49.845Z,64.15
2022-09-26T09:36:49.776Z,63.96
2022-09-26T09:37:49.789Z,63.19
2022-09-26T09:38:49.841Z,62.71
2022-09-26T09:39:49.793Z,62.23
2022-09-26T09:40:50.892Z,60.31
2022-09-26T09:41:49.770Z,59.32
2022-09-26T09:42:49.773Z,59.22
2022-09-26T09:43:49.781Z,59.80
2022-09-26T09:44:49.763Z,60.63
2022-09-26T09:45:49.771Z,60.92
2022-09-26T09:46:50.928Z,62.55
2022-09-26T09:47:49.772Z,63.03
2022-09-26T09:48:49.825Z,63.32
2022-09-26T09:49:49.784Z,63.22
2022-09-26T09:50:49.783Z,62.65
2022-09-26T09:51:49.794Z,62.55
2022-09-26T09:52:50.798Z,61.98
2022-09-26T09:53:49.815Z,60.72
2022-09-26T09:54:49.786Z,61.78
2022-09-26T09:55:49.770Z,61.21
2022-09-26T09:56:49.783Z,60.82
2022-09-26T09:57:49.802Z,60.25
2022-09-26T09:58:50.793Z,60.53
2022-09-26T09:59:49.794Z,60.92
2022-09-26T10:00:51.330Z,61.49
2022-09-26T10:01:49.815Z,61.11
2022-09-26T10:02:49.853Z,61.49
2022-09-26T10:03:49.816Z,61.18
2022-09-26T10:04:50.804Z,61.27
2022-09-26T10:05:49.791Z,61.30
2022-09-26T10:06:49.807Z,62.36
2022-09-26T10:07:49.834Z,62.71
2022-09-26T10:08:49.804Z,62.90
2022-09-26T10:09:49.812Z,61.46
2022-09-26T10:10:50.815Z,60.70
2022-09-26T10:11:52.570Z,60.05
2022-09-26T10:12:49.788Z,59.67
2022-09-26T10:13:49.809Z,60.15
2022-09-26T10:14:49.792Z,59.67
2022-09-26T10:15:49.814Z,59.26
2022-09-26T10:16:50.807Z,59.36
2022-09-26T10:18:12.771Z,60.03
2022-09-26T10:18:49.795Z,59.74
2022-09-26T10:19:49.808Z,59.67
2022-09-26T10:20:49.793Z,59.93
2022-09-26T10:21:49.878Z,59.55
2022-09-26T10:22:50.907Z,59.45
2022-09-26T10:23:49.813Z,59.55
2022-09-26T10:24:49.790Z,60.79
2022-09-26T10:25:49.798Z,60.70
2022-09-26T10:26:49.787Z,61.08
2022-09-26T10:27:49.808Z,59.86
2022-09-26T10:28:50.808Z,59.74
2022-09-26T10:29:49.801Z,59.64
2022-09-26T10:30:49.840Z,60.31
2022-09-26T10:31:49.855Z,60.79
2022-09-26T10:32:52.884Z,61.08
2022-09-26T10:33:49.813Z,60.79
2022-09-26T10:34:50.846Z,60.70
2022-09-26T10:35:49.798Z,61.08
2022-09-26T10:36:49.796Z,60.70
2022-09-26T10:37:49.801Z,60.70
2022-09-26T10:38:49.806Z,60.50
2022-09-26T10:39:49.813Z,60.60
2022-09-26T10:40:50.852Z,60.89
2022-09-26T10:41:49.796Z,61.18
2022-09-26T10:42:49.807Z,61.56
2022-09-26T10:43:49.803Z,61.46
2022-09-26T10:44:49.797Z,61.91
2022-09-26T10:45:49.798Z,62.33
2022-09-26T10:46:50.884Z,61.15
2022-09-26T10:47:49.797Z,61.53
2022-09-26T10:48:49.865Z,61.34
2022-09-26T10:49:49.806Z,60.67
2022-09-26T10:50:49.816Z,60.47
2022-09-26T10:51:49.813Z,60.47
2022-09-26T10:52:50.816Z,60.47
2022-09-26T10:53:49.792Z,60.67
2022-09-26T10:54:49.802Z,61.34
2022-09-26T10:55:49.797Z,61.24
2022-09-26T10:56:49.823Z,61.91
2022-09-26T10:57:49.801Z,61.63
2022-09-26T10:58:50.823Z,62.10
2022-09-26T10:59:49.807Z,62.39
2022-09-26T11:00:49.816Z,62.59
2022-09-26T11:01:49.874Z,63.26
2022-09-26T11:02:49.816Z,62.68
2022-09-26T11:03:50.016Z,62.68
2022-09-26T11:04:50.821Z,62.30
2022-09-26T11:05:49.819Z,62.30
2022-09-26T11:06:49.802Z,62.39
2022-09-26T11:07:49.795Z,62.68
2022-09-26T11:08:49.805Z,62.68
2022-09-26T11:09:49.810Z,62.20
2022-09-26T11:10:50.814Z,62.39
2022-09-26T11:11:49.803Z,62.20
2022-09-26T11:12:49.802Z,62.39
2022-09-26T11:13:49.792Z,61.98
2022-09-26T11:14:49.814Z,62.59
2022-09-26T11:15:49.856Z,62.68
2022-09-26T11:16:50.816Z,62.65
2022-09-26T11:17:49.800Z,62.96
2022-09-26T11:18:49.807Z,62.55
2022-09-26T11:19:54.518Z,62.74
2022-09-26T11:20:49.812Z,62.84
2022-09-26T11:21:49.811Z,62.46
2022-09-26T11:22:50.815Z,62.26
2022-09-26T11:23:49.790Z,62.30
2022-09-26T11:24:49.805Z,62.01
2022-09-26T11:25:52.324Z,63.06
2022-09-26T11:27:10.807Z,62.36
2022-09-26T11:29:12.497Z,62.26
2022-09-26T11:31:36.634Z,60.25
2022-09-26T11:34:00.475Z,60.76
2022-09-26T11:36:45.503Z,60.67
2022-09-26T11:38:28.476Z,60.76
2022-09-26T11:39:28.479Z,60.25
2022-09-26T11:41:32.474Z,60.19
2022-09-26T11:42:32.444Z,60.76
2022-09-26T11:44:25.401Z,61.15
2022-09-26T11:45:25.361Z,60.86
2022-09-26T11:47:29.405Z,60.28
2022-09-26T11:48:29.373Z,59.61
2022-09-26T11:50:33.380Z,59.80
2022-09-26T11:51:33.334Z,59.80
2022-09-26T11:53:37.357Z,59.52
2022-09-26T11:54:37.331Z,60.38
2022-09-26T11:56:41.344Z,60.47
2022-09-26T11:57:41.340Z,60.67
2022-09-26T11:59:45.367Z,61.15
2022-09-26T12:00:45.324Z,61.72
2022-09-26T12:02:49.467Z,62.20
2022-09-26T12:03:49.424Z,62.26
2022-09-26T12:05:53.366Z,62.49
2022-09-26T12:06:53.333Z,62.93
2022-09-26T12:08:57.316Z,63.22
2022-09-26T12:09:57.311Z,63.73
2022-09-26T12:12:01.337Z,63.32
2022-09-26T12:13:01.298Z,62.77
2022-09-26T12:14:54.221Z,63.03
2022-09-26T12:15:54.240Z,63.13
2022-09-26T12:17:58.251Z,62.96
2022-09-26T12:18:58.216Z,62.68
2022-09-26T12:21:02.190Z,62.59
2022-09-26T12:22:02.201Z,62.87
2022-09-26T12:24:06.313Z,62.96
2022-09-26T12:25:06.205Z,62.96
2022-09-26T12:27:10.702Z,62.39
2022-09-26T12:28:10.726Z,62.96
2022-09-26T12:29:10.690Z,63.06
2022-09-26T12:30:10.702Z,63.06
2022-09-26T12:31:10.747Z,62.68
2022-09-26T12:32:10.692Z,62.49
2022-09-26T12:33:10.706Z,62.39
2022-09-26T12:34:10.751Z,61.82
2022-09-26T12:35:10.726Z,61.72
2022-09-26T12:36:10.689Z,61.72
2022-09-26T12:37:10.699Z,61.15
2022-09-26T12:38:10.691Z,61.43
2022-09-26T12:39:10.701Z,62.01
2022-09-26T12:40:10.742Z,61.43
2022-09-26T12:41:10.687Z,61.91
2022-09-26T12:42:10.686Z,62.01
2022-09-26T12:43:10.734Z,61.91
2022-09-26T12:44:10.693Z,62.20
2022-09-26T12:45:10.683Z,62.10
2022-09-26T12:46:10.738Z,61.82
2022-09-26T12:47:10.698Z,61.15
2022-09-26T12:48:10.701Z,60.09
2022-09-26T12:49:10.735Z,59.61
2022-09-26T12:50:10.726Z,59.80
2022-09-26T12:51:10.700Z,59.61
2022-09-26T12:52:10.714Z,59.52
2022-09-26T12:53:10.725Z,60.57
2022-09-26T12:54:10.700Z,60.38
2022-09-26T12:55:10.703Z,60.57
2022-09-26T12:56:10.680Z,60.96
2022-09-26T12:57:10.686Z,60.76
2022-09-26T12:58:10.689Z,61.15
2022-09-26T12:59:10.683Z,61.05
2022-09-26T13:00:10.690Z,61.24
2022-09-26T13:01:10.742Z,61.24
2022-09-26T13:02:10.798Z,60.38
2022-09-26T13:03:10.740Z,60.19
2022-09-26T13:04:10.680Z,60.38
2022-09-26T13:05:10.702Z,60.00
2022-09-26T13:06:10.685Z,60.96
2022-09-26T13:07:19.698Z,60.38
2022-09-26T13:08:10.692Z,60.76
2022-09-26T13:09:10.695Z,60.76
2022-09-26T13:10:10.680Z,61.05
2022-09-26T13:11:10.683Z,61.15
2022-09-26T13:12:10.684Z,61.05
2022-09-26T13:13:10.686Z,61.24
2022-09-26T13:14:10.701Z,61.43
2022-09-26T13:15:10.720Z,61.43
2022-09-26T13:16:10.740Z,61.24
2022-09-26T13:17:10.672Z,61.24
2022-09-26T13:18:10.684Z,61.82
2022-09-26T13:19:10.677Z,61.79